sensor_id;sensor_type;location;lat;lon;timestamp;temperature;humidity
6293;DHT22;3179;54.350;10.102;2024-02-23T00:02:24;11.50;99.90
6293;DHT22;3179;54.350;10.102;2024-02-23T00:04:51;11.50;99.90
6293;DHT22;3179;54.350;10.102;2024-02-23T00:07:18;11.40;99.90
6293;DHT22;3179;54.350;10.102;2024-02-23T00:09:45;11.40;99.90
6293;DHT22;3179;54.350;10.102;2024-02-23T00:12:13;11.30;99.90
6293;DHT22;3179;54.350;10.102;2024-02-23T00:14:40;11.30;99.90
6293;DHT22;3179;54.350;10.102;2024-02-23T00:17:07;11.20;99.90
6293;DHT22;3179;54.350;10.102;2024-02-23T00:19:34;11.10;99.90
6293;DHT22;3179;54.350;10.102;2024-02-23T00:22:01;11.10;99.90
6293;DHT22;3179;54.350;10.102;2024-02-23T00:24:28;11.00;99.90
6293;DHT22;3179;54.350;10.102;2024-02-23T00:26:55;11.00;99.90
6293;DHT22;3179;54.350;10.102;2024-02-23T00:29:24;10.90;99.90
6293;DHT22;3179;54.350;10.102;2024-02-23T00:31:51;10.90;99.90
6293;DHT22;3179;54.350;10.102;2024-02-23T00:34:17;10.90;99.90
6293;DHT22;3179;54.350;10.102;2024-02-23T00:36:44;10.90;99.90
6293;DHT22;3179;54.350;10.102;2024-02-23T00:39:11;10.90;99.90
6293;DHT22;3179;54.350;10.102;2024-02-23T00:41:38;10.90;99.90
6293;DHT22;3179;54.350;10.102;2024-02-23T00:44:05;10.80;99.90
6293;DHT22;3179;54.350;10.102;2024-02-23T00:46:33;10.90;99.90
6293;DHT22;3179;54.350;10.102;2024-02-23T00:49:00;10.90;99.90
6293;DHT22;3179;54.350;10.102;2024-02-23T00:51:29;10.80;99.90
6293;DHT22;3179;54.350;10.102;2024-02-23T00:53:56;10.80;99.90
6293;DHT22;3179;54.350;10.102;2024-02-23T00:56:23;10.70;99.90
6293;DHT22;3179;54.350;10.102;2024-02-23T00:58:50;10.60;99.90
6293;DHT22;3179;54.350;10.102;2024-02-23T01:01:17;10.50;99.90
6293;DHT22;3179;54.350;10.102;2024-02-23T01:03:45;10.30;99.90
6293;DHT22;3179;54.350;10.102;2024-02-23T01:06:12;10.20;99.90
6293;DHT22;3179;54.350;10.102;2024-02-23T01:08:39;10.10;99.90
6293;DHT22;3179;54.350;10.102;2024-02-23T01:11:06;10.00;99.90
6293;DHT22;3179;54.350;10.102;2024-02-23T01:13:33;9.80;99.90
6293;DHT22;3179;54.350;10.102;2024-02-23T01:16:00;9.90;99.90
6293;DHT22;3179;54.350;10.102;2024-02-23T01:18:27;9.90;99.90
6293;DHT22;3179;54.350;10.102;2024-02-23T01:20:56;9.90;99.90
6293;DHT22;3179;54.350;10.102;2024-02-23T01:23:23;9.80;99.90
6293;DHT22;3179;54.350;10.102;2024-02-23T01:25:50;9.80;99.90
6293;DHT22;3179;54.350;10.102;2024-02-23T01:28:16;9.80;99.90
6293;DHT22;3179;54.350;10.102;2024-02-23T01:30:43;9.70;99.90
6293;DHT22;3179;54.350;10.102;2024-02-23T01:33:10;9.70;99.90
6293;DHT22;3179;54.350;10.102;2024-02-23T01:35:37;9.60;99.90
6293;DHT22;3179;54.350;10.102;2024-02-23T01:38:05;9.50;99.90
6293;DHT22;3179;54.350;10.102;2024-02-23T01:40:32;9.50;99.90
6293;DHT22;3179;54.350;10.102;2024-02-23T01:43:03;9.40;99.90
6293;DHT22;3179;54.350;10.102;2024-02-23T01:45:30;9.50;99.90
6293;DHT22;3179;54.350;10.102;2024-02-23T01:47:58;9.50;99.90
6293;DHT22;3179;54.350;10.102;2024-02-23T01:50:25;9.50;99.90
6293;DHT22;3179;54.350;10.102;2024-02-23T01:52:53;9.40;99.90
6293;DHT22;3179;54.350;10.102;2024-02-23T01:55:23;9.40;99.90
6293;DHT22;3179;54.350;10.102;2024-02-23T01:57:50;9.30;99.90
6293;DHT22;3179;54.350;10.102;2024-02-23T02:00:18;9.20;99.90
6293;DHT22;3179;54.350;10.102;2024-02-23T02:02:47;9.20;99.90
6293;DHT22;3179;54.350;10.102;2024-02-23T02:05:14;9.20;99.90
6293;DHT22;3179;54.350;10.102;2024-02-23T02:07:41;9.20;99.90
6293;DHT22;3179;54.350;10.102;2024-02-23T02:10:09;9.20;99.90
6293;DHT22;3179;54.350;10.102;2024-02-23T02:12:37;9.20;99.90
6293;DHT22;3179;54.350;10.102;2024-02-23T02:15:05;9.20;99.90
6293;DHT22;3179;54.350;10.102;2024-02-23T02:17:32;9.20;99.90
6293;DHT22;3179;54.350;10.102;2024-02-23T02:20:02;9.10;99.90
6293;DHT22;3179;54.350;10.102;2024-02-23T02:22:31;9.00;99.90
6293;DHT22;3179;54.350;10.102;2024-02-23T02:24:58;9.00;99.90
6293;DHT22;3179;54.350;10.102;2024-02-23T02:27:25;9.00;99.90
6293;DHT22;3179;54.350;10.102;2024-02-23T02:29:54;9.00;99.90
6293;DHT22;3179;54.350;10.102;2024-02-23T02:32:20;9.10;99.90
6293;DHT22;3179;54.350;10.102;2024-02-23T02:34:47;9.00;99.90
6293;DHT22;3179;54.350;10.102;2024-02-23T02:37:14;9.00;99.90
6293;DHT22;3179;54.350;10.102;2024-02-23T02:39:41;9.00;99.90
6293;DHT22;3179;54.350;10.102;2024-02-23T02:42:08;9.00;99.90
6293;DHT22;3179;54.350;10.102;2024-02-23T02:44:36;8.90;99.90
6293;DHT22;3179;54.350;10.102;2024-02-23T02:47:04;8.90;99.90
6293;DHT22;3179;54.350;10.102;2024-02-23T02:49:31;8.90;99.90
6293;DHT22;3179;54.350;10.102;2024-02-23T02:51:58;8.80;99.90
6293;DHT22;3179;54.350;10.102;2024-02-23T02:54:25;8.80;99.90
6293;DHT22;3179;54.350;10.102;2024-02-23T02:56:51;8.80;99.90
6293;DHT22;3179;54.350;10.102;2024-02-23T02:59:19;8.80;99.90
6293;DHT22;3179;54.350;10.102;2024-02-23T03:01:46;8.70;99.90
6293;DHT22;3179;54.350;10.102;2024-02-23T03:04:15;8.70;99.90
6293;DHT22;3179;54.350;10.102;2024-02-23T03:06:42;8.70;99.90
6293;DHT22;3179;54.350;10.102;2024-02-23T03:09:08;8.60;99.90
6293;DHT22;3179;54.350;10.102;2024-02-23T03:11:36;8.60;99.90
6293;DHT22;3179;54.350;10.102;2024-02-23T03:14:03;8.60;99.90
6293;DHT22;3179;54.350;10.102;2024-02-23T03:16:29;8.60;99.90
6293;DHT22;3179;54.350;10.102;2024-02-23T03:18:57;8.50;99.90
6293;DHT22;3179;54.350;10.102;2024-02-23T03:21:25;8.60;99.90
6293;DHT22;3179;54.350;10.102;2024-02-23T03:23:52;8.50;99.90
6293;DHT22;3179;54.350;10.102;2024-02-23T03:26:19;8.60;99.90
6293;DHT22;3179;54.350;10.102;2024-02-23T03:28:45;8.60;99.90
6293;DHT22;3179;54.350;10.102;2024-02-23T03:31:14;8.50;99.90
6293;DHT22;3179;54.350;10.102;2024-02-23T03:33:41;8.50;99.90
6293;DHT22;3179;54.350;10.102;2024-02-23T03:36:08;8.50;99.90
6293;DHT22;3179;54.350;10.102;2024-02-23T03:38:36;8.50;99.90
6293;DHT22;3179;54.350;10.102;2024-02-23T03:41:03;8.50;99.90
6293;DHT22;3179;54.350;10.102;2024-02-23T03:43:30;8.50;99.90
6293;DHT22;3179;54.350;10.102;2024-02-23T03:45:57;8.50;99.90
6293;DHT22;3179;54.350;10.102;2024-02-23T03:48:23;8.50;99.90
6293;DHT22;3179;54.350;10.102;2024-02-23T03:50:50;8.50;99.90
6293;DHT22;3179;54.350;10.102;2024-02-23T03:53:17;8.50;99.90
6293;DHT22;3179;54.350;10.102;2024-02-23T03:55:46;8.50;99.90
6293;DHT22;3179;54.350;10.102;2024-02-23T03:58:12;8.50;99.90
6293;DHT22;3179;54.350;10.102;2024-02-23T04:00:39;8.50;99.90
6293;DHT22;3179;54.350;10.102;2024-02-23T04:03:06;8.50;99.90
6293;DHT22;3179;54.350;10.102;2024-02-23T04:05:34;8.40;99.90
6293;DHT22;3179;54.350;10.102;2024-02-23T04:08:01;8.40;99.90
6293;DHT22;3179;54.350;10.102;2024-02-23T04:10:28;8.40;99.90
6293;DHT22;3179;54.350;10.102;2024-02-23T04:12:57;8.40;99.90
6293;DHT22;3179;54.350;10.102;2024-02-23T04:15:24;8.50;99.90
6293;DHT22;3179;54.350;10.102;2024-02-23T04:17:51;8.50;99.90
6293;DHT22;3179;54.350;10.102;2024-02-23T04:20:18;8.50;99.90
6293;DHT22;3179;54.350;10.102;2024-02-23T04:22:45;8.40;99.90
6293;DHT22;3179;54.350;10.102;2024-02-23T04:25:12;8.50;99.90
6293;DHT22;3179;54.350;10.102;2024-02-23T04:27:39;8.50;99.90
6293;DHT22;3179;54.350;10.102;2024-02-23T04:30:08;8.50;99.90
6293;DHT22;3179;54.350;10.102;2024-02-23T04:32:35;8.40;99.90
6293;DHT22;3179;54.350;10.102;2024-02-23T04:35:02;8.50;99.90
6293;DHT22;3179;54.350;10.102;2024-02-23T04:37:29;8.50;99.90
6293;DHT22;3179;54.350;10.102;2024-02-23T04:39:56;8.40;99.90
6293;DHT22;3179;54.350;10.102;2024-02-23T04:42:22;8.40;99.90
6293;DHT22;3179;54.350;10.102;2024-02-23T04:44:49;8.40;99.90
6293;DHT22;3179;54.350;10.102;2024-02-23T04:47:19;8.40;99.90
6293;DHT22;3179;54.350;10.102;2024-02-23T04:49:46;8.40;99.90
6293;DHT22;3179;54.350;10.102;2024-02-23T04:52:13;8.40;99.90
6293;DHT22;3179;54.350;10.102;2024-02-23T04:54:40;8.40;99.90
6293;DHT22;3179;54.350;10.102;2024-02-23T04:57:07;8.40;99.90
6293;DHT22;3179;54.350;10.102;2024-02-23T04:59:34;8.40;99.90
6293;DHT22;3179;54.350;10.102;2024-02-23T05:02:00;8.40;99.90
6293;DHT22;3179;54.350;10.102;2024-02-23T05:04:29;8.30;99.90
6293;DHT22;3179;54.350;10.102;2024-02-23T05:06:55;8.30;99.90
6293;DHT22;3179;54.350;10.102;2024-02-23T05:09:22;8.40;99.90
6293;DHT22;3179;54.350;10.102;2024-02-23T05:11:49;8.40;99.90
6293;DHT22;3179;54.350;10.102;2024-02-23T05:14:16;8.40;99.90
6293;DHT22;3179;54.350;10.102;2024-02-23T05:16:43;8.40;99.90
6293;DHT22;3179;54.350;10.102;2024-02-23T05:19:10;8.40;99.90
6293;DHT22;3179;54.350;10.102;2024-02-23T05:21:38;8.40;99.90
6293;DHT22;3179;54.350;10.102;2024-02-23T05:24:05;8.40;99.90
6293;DHT22;3179;54.350;10.102;2024-02-23T05:26:32;8.30;99.90
6293;DHT22;3179;54.350;10.102;2024-02-23T05:28:59;8.30;99.90
6293;DHT22;3179;54.350;10.102;2024-02-23T05:31:43;8.30;99.90
6293;DHT22;3179;54.350;10.102;2024-02-23T05:34:11;8.30;99.90
6293;DHT22;3179;54.350;10.102;2024-02-23T05:36:39;8.30;99.90
6293;DHT22;3179;54.350;10.102;2024-02-23T05:39:06;8.30;99.90
6293;DHT22;3179;54.350;10.102;2024-02-23T05:41:33;8.30;99.90
6293;DHT22;3179;54.350;10.102;2024-02-23T05:44:00;8.30;99.90
6293;DHT22;3179;54.350;10.102;2024-02-23T05:46:29;8.30;99.90
6293;DHT22;3179;54.350;10.102;2024-02-23T05:48:57;8.30;99.90
6293;DHT22;3179;54.350;10.102;2024-02-23T05:51:24;8.30;99.90
6293;DHT22;3179;54.350;10.102;2024-02-23T05:53:52;8.30;99.90
6293;DHT22;3179;54.350;10.102;2024-02-23T05:56:19;8.20;99.90
6293;DHT22;3179;54.350;10.102;2024-02-23T05:58:46;8.20;99.90
6293;DHT22;3179;54.350;10.102;2024-02-23T06:01:12;8.20;99.90
6293;DHT22;3179;54.350;10.102;2024-02-23T06:03:39;8.20;99.90
6293;DHT22;3179;54.350;10.102;2024-02-23T06:06:07;8.20;99.90
6293;DHT22;3179;54.350;10.102;2024-02-23T06:08:35;8.20;99.90
6293;DHT22;3179;54.350;10.102;2024-02-23T06:11:04;8.20;99.90
6293;DHT22;3179;54.350;10.102;2024-02-23T06:13:31;8.20;99.90
6293;DHT22;3179;54.350;10.102;2024-02-23T06:15:59;8.20;99.90
6293;DHT22;3179;54.350;10.102;2024-02-23T06:18:25;8.10;99.90
6293;DHT22;3179;54.350;10.102;2024-02-23T06:20:52;8.20;99.90
6293;DHT22;3179;54.350;10.102;2024-02-23T06:23:19;8.20;99.90
6293;DHT22;3179;54.350;10.102;2024-02-23T06:25:47;8.20;99.90
6293;DHT22;3179;54.350;10.102;2024-02-23T06:28:15;8.20;99.90
6293;DHT22;3179;54.350;10.102;2024-02-23T06:30:42;8.30;99.90
6293;DHT22;3179;54.350;10.102;2024-02-23T06:33:09;8.30;99.90
6293;DHT22;3179;54.350;10.102;2024-02-23T06:35:36;8.20;99.90
6293;DHT22;3179;54.350;10.102;2024-02-23T06:38:03;8.20;99.90
6293;DHT22;3179;54.350;10.102;2024-02-23T06:40:31;8.10;99.90
6293;DHT22;3179;54.350;10.102;2024-02-23T06:42:58;8.10;99.90
6293;DHT22;3179;54.350;10.102;2024-02-23T06:45:26;8.20;99.90
6293;DHT22;3179;54.350;10.102;2024-02-23T06:47:53;8.20;99.90
6293;DHT22;3179;54.350;10.102;2024-02-23T06:50:20;8.20;99.90
6293;DHT22;3179;54.350;10.102;2024-02-23T06:52:48;8.20;99.90
6293;DHT22;3179;54.350;10.102;2024-02-23T06:55:15;8.20;99.90
6293;DHT22;3179;54.350;10.102;2024-02-23T06:57:43;8.10;99.90
6293;DHT22;3179;54.350;10.102;2024-02-23T07:00:11;8.10;99.90
6293;DHT22;3179;54.350;10.102;2024-02-23T07:02:39;8.10;99.90
6293;DHT22;3179;54.350;10.102;2024-02-23T07:05:06;8.10;99.90
6293;DHT22;3179;54.350;10.102;2024-02-23T07:07:34;8.10;99.90
6293;DHT22;3179;54.350;10.102;2024-02-23T07:10:01;8.10;99.90
6293;DHT22;3179;54.350;10.102;2024-02-23T07:12:28;8.10;99.90
6293;DHT22;3179;54.350;10.102;2024-02-23T07:14:55;8.20;99.90
6293;DHT22;3179;54.350;10.102;2024-02-23T07:17:22;8.20;99.90
6293;DHT22;3179;54.350;10.102;2024-02-23T07:19:51;8.20;99.90
6293;DHT22;3179;54.350;10.102;2024-02-23T07:22:18;8.20;99.90
6293;DHT22;3179;54.350;10.102;2024-02-23T07:24:46;8.20;99.90
6293;DHT22;3179;54.350;10.102;2024-02-23T07:27:12;8.20;99.90
6293;DHT22;3179;54.350;10.102;2024-02-23T07:29:39;8.20;99.90
6293;DHT22;3179;54.350;10.102;2024-02-23T07:32:06;8.20;99.90
6293;DHT22;3179;54.350;10.102;2024-02-23T07:34:33;8.20;99.90
6293;DHT22;3179;54.350;10.102;2024-02-23T07:37:01;8.20;99.90
6293;DHT22;3179;54.350;10.102;2024-02-23T07:39:29;8.20;99.90
6293;DHT22;3179;54.350;10.102;2024-02-23T07:41:56;8.20;99.90
6293;DHT22;3179;54.350;10.102;2024-02-23T07:44:23;8.10;99.90
6293;DHT22;3179;54.350;10.102;2024-02-23T07:46:51;8.10;99.90
6293;DHT22;3179;54.350;10.102;2024-02-23T07:49:20;8.00;99.90
6293;DHT22;3179;54.350;10.102;2024-02-23T07:51:47;8.10;99.90
6293;DHT22;3179;54.350;10.102;2024-02-23T07:54:16;8.10;99.90
6293;DHT22;3179;54.350;10.102;2024-02-23T07:56:42;8.10;99.90
6293;DHT22;3179;54.350;10.102;2024-02-23T07:59:09;8.10;99.90
6293;DHT22;3179;54.350;10.102;2024-02-23T08:01:36;8.00;99.90
6293;DHT22;3179;54.350;10.102;2024-02-23T08:04:03;8.00;99.90
6293;DHT22;3179;54.350;10.102;2024-02-23T08:06:30;8.00;99.90
6293;DHT22;3179;54.350;10.102;2024-02-23T08:08:57;8.00;99.90
6293;DHT22;3179;54.350;10.102;2024-02-23T08:11:25;8.00;99.90
6293;DHT22;3179;54.350;10.102;2024-02-23T08:13:52;8.00;99.90
6293;DHT22;3179;54.350;10.102;2024-02-23T08:16:19;8.10;99.90
6293;DHT22;3179;54.350;10.102;2024-02-23T08:18:46;8.10;99.90
6293;DHT22;3179;54.350;10.102;2024-02-23T08:21:13;8.10;99.90
6293;DHT22;3179;54.350;10.102;2024-02-23T08:23:39;8.10;99.90
6293;DHT22;3179;54.350;10.102;2024-02-23T08:26:06;8.10;99.90
6293;DHT22;3179;54.350;10.102;2024-02-23T08:28:37;8.10;99.90
6293;DHT22;3179;54.350;10.102;2024-02-23T08:31:03;8.20;99.90
6293;DHT22;3179;54.350;10.102;2024-02-23T08:33:30;8.20;99.90
6293;DHT22;3179;54.350;10.102;2024-02-23T08:35:57;8.30;99.90
6293;DHT22;3179;54.350;10.102;2024-02-23T08:38:24;8.30;99.90
6293;DHT22;3179;54.350;10.102;2024-02-23T08:40:51;8.30;99.90
6293;DHT22;3179;54.350;10.102;2024-02-23T08:43:18;8.30;99.90
6293;DHT22;3179;54.350;10.102;2024-02-23T08:45:49;8.30;99.90
6293;DHT22;3179;54.350;10.102;2024-02-23T08:48:16;8.30;99.90
6293;DHT22;3179;54.350;10.102;2024-02-23T08:50:43;8.30;99.90
6293;DHT22;3179;54.350;10.102;2024-02-23T08:53:10;8.30;99.90
6293;DHT22;3179;54.350;10.102;2024-02-23T08:55:37;8.30;99.90
6293;DHT22;3179;54.350;10.102;2024-02-23T08:58:04;8.20;99.90
6293;DHT22;3179;54.350;10.102;2024-02-23T09:00:31;8.30;99.90
6293;DHT22;3179;54.350;10.102;2024-02-23T09:03:00;8.30;99.90
6293;DHT22;3179;54.350;10.102;2024-02-23T09:05:26;8.30;99.90
6293;DHT22;3179;54.350;10.102;2024-02-23T09:07:54;8.30;99.90
6293;DHT22;3179;54.350;10.102;2024-02-23T09:10:21;8.30;99.90
6293;DHT22;3179;54.350;10.102;2024-02-23T09:12:48;8.30;99.90
6293;DHT22;3179;54.350;10.102;2024-02-23T09:15:15;8.30;99.90
6293;DHT22;3179;54.350;10.102;2024-02-23T09:17:42;8.30;99.90
6293;DHT22;3179;54.350;10.102;2024-02-23T09:20:11;8.30;99.90
6293;DHT22;3179;54.350;10.102;2024-02-23T09:22:38;8.40;99.90
6293;DHT22;3179;54.350;10.102;2024-02-23T09:25:06;8.40;99.90
6293;DHT22;3179;54.350;10.102;2024-02-23T09:27:34;8.40;99.90
6293;DHT22;3179;54.350;10.102;2024-02-23T09:30:02;8.40;99.90
6293;DHT22;3179;54.350;10.102;2024-02-23T09:32:29;8.40;99.90
6293;DHT22;3179;54.350;10.102;2024-02-23T09:34:56;8.50;99.90
6293;DHT22;3179;54.350;10.102;2024-02-23T09:37:25;8.40;99.90
6293;DHT22;3179;54.350;10.102;2024-02-23T09:39:52;8.40;99.90
6293;DHT22;3179;54.350;10.102;2024-02-23T09:42:22;8.40;99.90
6293;DHT22;3179;54.350;10.102;2024-02-23T09:44:55;8.40;99.90
6293;DHT22;3179;54.350;10.102;2024-02-23T09:47:24;8.50;99.90
6293;DHT22;3179;54.350;10.102;2024-02-23T09:49:53;8.50;99.90
6293;DHT22;3179;54.350;10.102;2024-02-23T09:52:21;8.60;99.90
6293;DHT22;3179;54.350;10.102;2024-02-23T09:54:50;8.70;99.90
6293;DHT22;3179;54.350;10.102;2024-02-23T09:57:17;8.70;99.90
6293;DHT22;3179;54.350;10.102;2024-02-23T09:59:44;8.70;99.90
6293;DHT22;3179;54.350;10.102;2024-02-23T10:02:15;8.80;99.90
6293;DHT22;3179;54.350;10.102;2024-02-23T10:04:42;8.80;99.90
6293;DHT22;3179;54.350;10.102;2024-02-23T10:07:10;8.90;99.90
6293;DHT22;3179;54.350;10.102;2024-02-23T10:09:37;8.80;99.90
6293;DHT22;3179;54.350;10.102;2024-02-23T10:12:06;8.80;99.90
6293;DHT22;3179;54.350;10.102;2024-02-23T10:14:33;8.90;99.90
6293;DHT22;3179;54.350;10.102;2024-02-23T10:17:00;8.90;99.90
6293;DHT22;3179;54.350;10.102;2024-02-23T10:19:27;8.90;99.90
6293;DHT22;3179;54.350;10.102;2024-02-23T10:21:55;8.90;99.90
6293;DHT22;3179;54.350;10.102;2024-02-23T10:24:23;8.90;99.90
6293;DHT22;3179;54.350;10.102;2024-02-23T10:26:51;8.90;99.90
6293;DHT22;3179;54.350;10.102;2024-02-23T10:29:19;8.80;99.90
6293;DHT22;3179;54.350;10.102;2024-02-23T10:31:47;8.90;99.90
6293;DHT22;3179;54.350;10.102;2024-02-23T10:34:17;8.80;99.90
6293;DHT22;3179;54.350;10.102;2024-02-23T10:36:46;8.90;99.90
6293;DHT22;3179;54.350;10.102;2024-02-23T10:39:16;8.90;99.90
6293;DHT22;3179;54.350;10.102;2024-02-23T10:41:47;9.00;99.90
6293;DHT22;3179;54.350;10.102;2024-02-23T10:44:16;9.10;99.90
6293;DHT22;3179;54.350;10.102;2024-02-23T10:46:46;9.10;99.90
6293;DHT22;3179;54.350;10.102;2024-02-23T10:49:15;9.10;99.90
6293;DHT22;3179;54.350;10.102;2024-02-23T10:51:43;9.00;99.90
6293;DHT22;3179;54.350;10.102;2024-02-23T10:54:13;9.00;99.90
6293;DHT22;3179;54.350;10.102;2024-02-23T10:56:40;9.00;99.90
6293;DHT22;3179;54.350;10.102;2024-02-23T10:59:08;9.00;99.90
6293;DHT22;3179;54.350;10.102;2024-02-23T11:01:36;9.10;99.90
6293;DHT22;3179;54.350;10.102;2024-02-23T11:04:07;9.00;99.90
6293;DHT22;3179;54.350;10.102;2024-02-23T11:06:34;9.10;99.90
6293;DHT22;3179;54.350;10.102;2024-02-23T11:09:07;9.00;99.90
6293;DHT22;3179;54.350;10.102;2024-02-23T11:11:35;9.00;99.90
6293;DHT22;3179;54.350;10.102;2024-02-23T11:14:03;9.00;99.90
6293;DHT22;3179;54.350;10.102;2024-02-23T11:16:38;9.00;99.90
6293;DHT22;3179;54.350;10.102;2024-02-23T11:19:08;9.00;99.90
6293;DHT22;3179;54.350;10.102;2024-02-23T11:21:37;9.00;99.90
6293;DHT22;3179;54.350;10.102;2024-02-23T11:24:05;9.00;99.90
6293;DHT22;3179;54.350;10.102;2024-02-23T11:26:32;9.10;99.90
6293;DHT22;3179;54.350;10.102;2024-02-23T11:29:10;9.10;99.90
6293;DHT22;3179;54.350;10.102;2024-02-23T11:31:44;9.20;99.90
6293;DHT22;3179;54.350;10.102;2024-02-23T11:34:12;9.30;99.90
6293;DHT22;3179;54.350;10.102;2024-02-23T11:36:39;9.30;99.90
6293;DHT22;3179;54.350;10.102;2024-02-23T11:39:06;9.30;99.90
6293;DHT22;3179;54.350;10.102;2024-02-23T11:41:37;9.30;99.90
6293;DHT22;3179;54.350;10.102;2024-02-23T11:44:04;9.30;99.90
6293;DHT22;3179;54.350;10.102;2024-02-23T11:46:32;9.30;99.90
6293;DHT22;3179;54.350;10.102;2024-02-23T11:48:59;9.30;99.90
6293;DHT22;3179;54.350;10.102;2024-02-23T11:51:27;9.30;99.90
6293;DHT22;3179;54.350;10.102;2024-02-23T11:53:56;9.30;99.90
6293;DHT22;3179;54.350;10.102;2024-02-23T11:56:26;9.30;99.90
6293;DHT22;3179;54.350;10.102;2024-02-23T11:58:54;9.30;99.90
6293;DHT22;3179;54.350;10.102;2024-02-23T12:01:21;9.30;99.90
6293;DHT22;3179;54.350;10.102;2024-02-23T12:03:48;9.30;99.90
6293;DHT22;3179;54.350;10.102;2024-02-23T12:06:15;9.30;99.90
6293;DHT22;3179;54.350;10.102;2024-02-23T12:08:44;9.40;99.90
6293;DHT22;3179;54.350;10.102;2024-02-23T12:11:12;9.40;99.90
6293;DHT22;3179;54.350;10.102;2024-02-23T12:13:39;9.40;99.90
6293;DHT22;3179;54.350;10.102;2024-02-23T12:16:07;9.50;99.90
6293;DHT22;3179;54.350;10.102;2024-02-23T12:18:35;9.50;99.90
6293;DHT22;3179;54.350;10.102;2024-02-23T12:21:04;9.60;99.90
6293;DHT22;3179;54.350;10.102;2024-02-23T12:23:39;9.60;99.90
6293;DHT22;3179;54.350;10.102;2024-02-23T12:26:07;9.60;99.90
6293;DHT22;3179;54.350;10.102;2024-02-23T12:28:34;9.60;99.90
6293;DHT22;3179;54.350;10.102;2024-02-23T12:31:02;9.60;99.90
6293;DHT22;3179;54.350;10.102;2024-02-23T12:33:31;9.60;99.90
6293;DHT22;3179;54.350;10.102;2024-02-23T12:36:00;9.60;99.90
6293;DHT22;3179;54.350;10.102;2024-02-23T12:38:27;9.60;99.90
6293;DHT22;3179;54.350;10.102;2024-02-23T12:40:54;9.60;99.90
6293;DHT22;3179;54.350;10.102;2024-02-23T12:43:23;9.60;99.90
6293;DHT22;3179;54.350;10.102;2024-02-23T12:45:50;9.70;99.90
6293;DHT22;3179;54.350;10.102;2024-02-23T12:48:17;9.70;99.90
6293;DHT22;3179;54.350;10.102;2024-02-23T12:50:44;9.70;99.90
6293;DHT22;3179;54.350;10.102;2024-02-23T12:53:31;9.60;99.90
6293;DHT22;3179;54.350;10.102;2024-02-23T12:56:00;9.60;99.90
6293;DHT22;3179;54.350;10.102;2024-02-23T12:58:28;9.60;99.90
6293;DHT22;3179;54.350;10.102;2024-02-23T13:00:56;9.60;99.90
6293;DHT22;3179;54.350;10.102;2024-02-23T13:03:23;9.60;99.90
6293;DHT22;3179;54.350;10.102;2024-02-23T13:05:50;9.60;99.90
6293;DHT22;3179;54.350;10.102;2024-02-23T13:08:17;9.60;99.90
6293;DHT22;3179;54.350;10.102;2024-02-23T13:10:44;9.60;99.90
6293;DHT22;3179;54.350;10.102;2024-02-23T13:13:12;9.60;99.90
6293;DHT22;3179;54.350;10.102;2024-02-23T13:15:42;9.60;99.90
6293;DHT22;3179;54.350;10.102;2024-02-23T13:18:08;9.60;99.90
6293;DHT22;3179;54.350;10.102;2024-02-23T13:20:35;9.60;99.90
6293;DHT22;3179;54.350;10.102;2024-02-23T13:23:02;9.60;99.90
6293;DHT22;3179;54.350;10.102;2024-02-23T13:25:29;9.60;99.90
6293;DHT22;3179;54.350;10.102;2024-02-23T13:27:57;9.60;99.90
6293;DHT22;3179;54.350;10.102;2024-02-23T13:30:24;9.60;99.90
6293;DHT22;3179;54.350;10.102;2024-02-23T13:32:53;9.60;99.90
6293;DHT22;3179;54.350;10.102;2024-02-23T13:35:20;9.60;99.90
6293;DHT22;3179;54.350;10.102;2024-02-23T13:37:47;9.60;99.90
6293;DHT22;3179;54.350;10.102;2024-02-23T13:40:14;9.60;99.90
6293;DHT22;3179;54.350;10.102;2024-02-23T13:42:41;9.60;99.90
6293;DHT22;3179;54.350;10.102;2024-02-23T13:45:11;9.60;99.90
6293;DHT22;3179;54.350;10.102;2024-02-23T13:47:40;9.60;99.90
6293;DHT22;3179;54.350;10.102;2024-02-23T13:50:09;9.60;99.90
6293;DHT22;3179;54.350;10.102;2024-02-23T13:52:37;9.60;99.90
6293;DHT22;3179;54.350;10.102;2024-02-23T13:55:04;9.60;99.90
6293;DHT22;3179;54.350;10.102;2024-02-23T13:57:31;9.60;99.90
6293;DHT22;3179;54.350;10.102;2024-02-23T14:00:07;9.60;99.90
6293;DHT22;3179;54.350;10.102;2024-02-23T14:02:38;9.60;99.90
6293;DHT22;3179;54.350;10.102;2024-02-23T14:05:06;9.60;99.90
6293;DHT22;3179;54.350;10.102;2024-02-23T14:07:35;9.70;99.90
6293;DHT22;3179;54.350;10.102;2024-02-23T14:10:02;9.70;99.90
6293;DHT22;3179;54.350;10.102;2024-02-23T14:12:29;9.70;99.90
6293;DHT22;3179;54.350;10.102;2024-02-23T14:14:56;9.70;99.90
6293;DHT22;3179;54.350;10.102;2024-02-23T14:17:23;9.70;99.90
6293;DHT22;3179;54.350;10.102;2024-02-23T14:19:50;9.70;99.90
6293;DHT22;3179;54.350;10.102;2024-02-23T14:22:17;9.70;99.90
6293;DHT22;3179;54.350;10.102;2024-02-23T14:24:45;9.70;99.90
6293;DHT22;3179;54.350;10.102;2024-02-23T14:27:12;9.70;99.90
6293;DHT22;3179;54.350;10.102;2024-02-23T14:29:39;9.70;99.90
6293;DHT22;3179;54.350;10.102;2024-02-23T14:32:06;9.70;99.90
6293;DHT22;3179;54.350;10.102;2024-02-23T14:34:33;9.80;99.90
6293;DHT22;3179;54.350;10.102;2024-02-23T14:37:00;9.90;99.90
6293;DHT22;3179;54.350;10.102;2024-02-23T14:39:27;9.90;99.90
6293;DHT22;3179;54.350;10.102;2024-02-23T14:41:55;9.90;99.90
6293;DHT22;3179;54.350;10.102;2024-02-23T14:44:22;9.80;99.90
6293;DHT22;3179;54.350;10.102;2024-02-23T14:46:49;9.90;99.90
6293;DHT22;3179;54.350;10.102;2024-02-23T14:49:16;9.80;99.90
6293;DHT22;3179;54.350;10.102;2024-02-23T14:51:42;9.80;99.90
6293;DHT22;3179;54.350;10.102;2024-02-23T14:54:11;9.80;99.90
6293;DHT22;3179;54.350;10.102;2024-02-23T14:56:38;9.90;99.90
6293;DHT22;3179;54.350;10.102;2024-02-23T14:59:07;10.20;99.90
6293;DHT22;3179;54.350;10.102;2024-02-23T15:01:36;10.40;99.90
6293;DHT22;3179;54.350;10.102;2024-02-23T15:04:03;10.40;99.90
6293;DHT22;3179;54.350;10.102;2024-02-23T15:06:30;10.30;99.90
6293;DHT22;3179;54.350;10.102;2024-02-23T15:08:57;10.20;99.90
6293;DHT22;3179;54.350;10.102;2024-02-23T15:11:24;10.10;99.90
6293;DHT22;3179;54.350;10.102;2024-02-23T15:13:51;10.00;99.90
6293;DHT22;3179;54.350;10.102;2024-02-23T15:16:24;10.00;99.90
6293;DHT22;3179;54.350;10.102;2024-02-23T15:18:51;9.90;99.90
6293;DHT22;3179;54.350;10.102;2024-02-23T15:21:18;9.80;99.90
6293;DHT22;3179;54.350;10.102;2024-02-23T15:23:45;9.80;99.90
6293;DHT22;3179;54.350;10.102;2024-02-23T15:26:12;9.80;99.90
6293;DHT22;3179;54.350;10.102;2024-02-23T15:28:39;9.80;99.90
6293;DHT22;3179;54.350;10.102;2024-02-23T15:31:05;9.70;99.90
6293;DHT22;3179;54.350;10.102;2024-02-23T15:33:34;9.70;99.90
6293;DHT22;3179;54.350;10.102;2024-02-23T15:36:01;9.70;99.90
6293;DHT22;3179;54.350;10.102;2024-02-23T15:38:30;9.70;99.90
6293;DHT22;3179;54.350;10.102;2024-02-23T15:40:57;9.70;99.90
6293;DHT22;3179;54.350;10.102;2024-02-23T15:43:23;9.70;99.90
6293;DHT22;3179;54.350;10.102;2024-02-23T15:45:53;9.70;99.90
6293;DHT22;3179;54.350;10.102;2024-02-23T15:48:20;9.70;99.90
6293;DHT22;3179;54.350;10.102;2024-02-23T15:50:48;9.60;99.90
6293;DHT22;3179;54.350;10.102;2024-02-23T15:53:15;9.60;99.90
6293;DHT22;3179;54.350;10.102;2024-02-23T15:55:42;9.60;99.90
6293;DHT22;3179;54.350;10.102;2024-02-23T15:58:09;9.60;99.90
6293;DHT22;3179;54.350;10.102;2024-02-23T16:00:36;9.60;99.90
6293;DHT22;3179;54.350;10.102;2024-02-23T16:03:04;9.70;99.90